Time;durP1;ratioP1;P1;durP2;ratioP2;P2;SDS_P1;SDS_P2;PMS_P1;PMS_P2;Temp;Humidity;BMP_temperature;BMP_pressure;BME280_temperature;BME280_humidity;BME280_pressure;Samples;Min_cycle;Max_cycle;Signal;HPM_P1;HPM_P2
2022/01/09 00:01:23;;;;;;;1.45;1.13;;;;;;;;;;5055418;28;20037;-68
2022/01/09 00:03:49;;;;;;;1.48;1.30;;;;;;;;;;5058516;28;20047;-69
2022/01/09 00:06:15;;;;;;;1.23;1.08;;;;;;;;;;5056279;28;20036;-68
2022/01/09 00:08:40;;;;;;;2.50;1.40;;;;;;;;;;5053347;28;20024;-68
2022/01/09 00:11:05;;;;;;;1.33;1.23;;;;;;;;;;5055793;28;20175;-68
2022/01/09 00:13:31;;;;;;;1.88;1.20;;;;;;;;;;5056647;28;20474;-68
2022/01/09 00:15:56;;;;;;;1.58;1.38;;;;;;;;;;5053934;28;20039;-68
2022/01/09 00:18:22;;;;;;;1.00;1.00;;;;;;;;;;5052700;28;20064;-68
2022/01/09 00:20:47;;;;;;;1.38;1.10;;;;;;;;;;5055625;28;20061;-68
2022/01/09 00:23:13;;;;;;;1.10;1.10;;;;;;;;;;5056669;28;20059;-68
2022/01/09 00:25:38;;;;;;;1.60;1.30;;;;;;;;;;5054440;28;20091;-68
2022/01/09 00:28:03;;;;;;;2.05;1.27;;;;;;;;;;5056414;28;20388;-69
2022/01/09 00:30:29;;;;;;;1.30;1.20;;;;;;;;;;5054127;28;20036;-69
2022/01/09 00:32:54;;;;;;;1.30;1.20;;;;;;;;;;5057481;28;20060;-68
2022/01/09 00:35:19;;;;;;;1.38;1.02;;;;;;;;;;5054152;28;20028;-68
2022/01/09 00:37:45;;;;;;;1.35;1.10;;;;;;;;;;5053707;28;20035;-69
2022/01/09 00:40:11;;;;;;;1.20;1.13;;;;;;;;;;5039987;28;20376;-69
2022/01/09 00:42:36;;;;;;;1.30;1.20;;;;;;;;;;5038957;28;20242;-68
2022/01/09 00:45:02;;;;;;;1.77;1.10;;;;;;;;;;5036960;28;20028;-68
2022/01/09 00:47:28;;;;;;;1.30;1.00;;;;;;;;;;5054919;28;20028;-68
2022/01/09 00:49:53;;;;;;;1.23;1.13;;;;;;;;;;5054426;28;20482;-68
2022/01/09 00:52:18;;;;;;;1.85;1.25;;;;;;;;;;5055987;28;20035;-68
2022/01/09 00:54:44;;;;;;;2.38;1.40;;;;;;;;;;5055505;28;20475;-68
2022/01/09 00:57:09;;;;;;;1.10;1.10;;;;;;;;;;5055518;28;20355;-68
2022/01/09 00:59:34;;;;;;;1.85;1.30;;;;;;;;;;5053764;28;20473;-68
2022/01/09 01:02:00;;;;;;;1.77;1.45;;;;;;;;;;5054505;28;20439;-68
2022/01/09 01:04:25;;;;;;;2.25;1.40;;;;;;;;;;5057652;28;20640;-69
2022/01/09 01:06:51;;;;;;;1.63;1.00;;;;;;;;;;5055260;28;20529;-68
2022/01/09 01:09:17;;;;;;;1.70;1.20;;;;;;;;;;5053917;28;20090;-68
2022/01/09 01:11:42;;;;;;;1.85;1.40;;;;;;;;;;5038314;28;20037;-68
2022/01/09 01:14:08;;;;;;;0.93;0.93;;;;;;;;;;5058755;28;20078;-68
2022/01/09 01:16:33;;;;;;;1.13;1.02;;;;;;;;;;5055863;28;20036;-68
2022/01/09 01:19:00;;;;;;;1.15;1.02;;;;;;;;;;5054937;28;20059;-68
2022/01/09 01:21:26;;;;;;;1.48;1.30;;;;;;;;;;5054375;28;20037;-68
2022/01/09 01:23:51;;;;;;;2.92;1.08;;;;;;;;;;5056949;28;20136;-68
2022/01/09 01:26:17;;;;;;;1.20;1.05;;;;;;;;;;5056334;28;20028;-68
2022/01/09 01:28:42;;;;;;;3.45;1.30;;;;;;;;;;5054005;28;20025;-68
2022/01/09 01:31:07;;;;;;;0.90;0.90;;;;;;;;;;5053954;28;20047;-69
2022/01/09 01:33:32;;;;;;;1.10;1.00;;;;;;;;;;5056306;28;20060;-68
2022/01/09 01:35:58;;;;;;;0.98;0.98;;;;;;;;;;5052894;28;20033;-69
2022/01/09 01:38:23;;;;;;;0.90;0.90;;;;;;;;;;5051060;28;20068;-68
2022/01/09 01:40:48;;;;;;;1.48;1.17;;;;;;;;;;5053290;28;20059;-68
2022/01/09 01:43:14;;;;;;;1.17;1.13;;;;;;;;;;5052067;28;20372;-68
2022/01/09 01:45:39;;;;;;;0.88;0.88;;;;;;;;;;5054955;28;20391;-68
2022/01/09 01:48:06;;;;;;;1.15;1.00;;;;;;;;;;5053305;28;20509;-69
2022/01/09 01:50:38;;;;;;;1.00;0.85;;;;;;;;;;5054862;28;20029;-68
2022/01/09 01:53:06;;;;;;;1.00;1.00;;;;;;;;;;5053240;28;20956;-68
2022/01/09 01:55:36;;;;;;;0.85;0.85;;;;;;;;;;5057620;28;20070;-68
2022/01/09 01:58:01;;;;;;;0.90;0.90;;;;;;;;;;5058980;28;20056;-69
2022/01/09 02:00:26;;;;;;;0.95;0.93;;;;;;;;;;5055955;28;20133;-68
2022/01/09 02:02:52;;;;;;;2.00;1.10;;;;;;;;;;5055076;28;20043;-68
2022/01/09 02:05:17;;;;;;;1.00;1.00;;;;;;;;;;5055928;28;20029;-68
2022/01/09 02:07:43;;;;;;;3.22;1.20;;;;;;;;;;5059804;28;20036;-68
2022/01/09 02:10:08;;;;;;;1.20;1.10;;;;;;;;;;5054249;28;20021;-68
2022/01/09 02:12:36;;;;;;;2.20;1.30;;;;;;;;;;5053585;28;20067;-68
2022/01/09 02:15:02;;;;;;;2.97;2.45;;;;;;;;;;5057619;28;20046;-68
2022/01/09 02:17:28;;;;;;;2.38;1.20;;;;;;;;;;5057131;28;20446;-69
2022/01/09 02:19:57;;;;;;;1.50;1.20;;;;;;;;;;5056092;28;20028;-68
2022/01/09 02:22:30;;;;;;;2.58;1.60;;;;;;;;;;5057464;28;20459;-69
2022/01/09 02:24:56;;;;;;;3.80;1.73;;;;;;;;;;5057179;28;20677;-68
2022/01/09 02:27:21;;;;;;;1.45;1.35;;;;;;;;;;5042102;28;20432;-68
2022/01/09 02:29:47;;;;;;;1.63;1.33;;;;;;;;;;5058772;28;20215;-68
2022/01/09 02:32:12;;;;;;;1.80;1.63;;;;;;;;;;5055986;28;20036;-68
2022/01/09 02:34:37;;;;;;;1.83;1.33;;;;;;;;;;5057599;28;20487;-68
2022/01/09 02:37:03;;;;;;;1.88;1.70;;;;;;;;;;5055606;28;20487;-68
2022/01/09 02:39:28;;;;;;;2.17;1.73;;;;;;;;;;5058518;28;20498;-68
2022/01/09 02:41:53;;;;;;;3.17;1.90;;;;;;;;;;5061042;28;20028;-68
2022/01/09 02:44:19;;;;;;;2.03;1.70;;;;;;;;;;5060148;28;20037;-68
2022/01/09 02:49:12;;;;;;;2.72;1.80;;;;;;;;;;5057868;28;20028;-68
2022/01/09 02:51:40;;;;;;;2.75;1.60;;;;;;;;;;5060014;28;20042;-69
2022/01/09 02:56:54;;;;;;;1.85;1.42;;;;;;;;;;5025494;28;20771;-70
2022/01/09 02:59:20;;;;;;;2.38;1.48;;;;;;;;;;5050432;28;20024;-70
2022/01/09 03:01:45;;;;;;;1.90;1.35;;;;;;;;;;5049855;28;20906;-70
2022/01/09 03:04:10;;;;;;;1.73;1.50;;;;;;;;;;5050960;28;20122;-70
2022/01/09 03:06:35;;;;;;;2.25;1.40;;;;;;;;;;5052277;28;20952;-70
2022/01/09 03:09:03;;;;;;;1.45;1.35;;;;;;;;;;5052078;28;20021;-70
2022/01/09 03:11:28;;;;;;;1.90;1.40;;;;;;;;;;5052120;28;20025;-70
2022/01/09 03:13:54;;;;;;;1.67;1.35;;;;;;;;;;5051979;28;20048;-70
2022/01/09 03:16:19;;;;;;;1.38;1.27;;;;;;;;;;5050424;28;20032;-70
2022/01/09 03:18:44;;;;;;;1.40;1.30;;;;;;;;;;5051937;28;20199;-70
2022/01/09 03:21:09;;;;;;;1.60;1.40;;;;;;;;;;5052058;28;20117;-70
2022/01/09 03:23:35;;;;;;;1.92;1.70;;;;;;;;;;5051820;28;20111;-70
2022/01/09 03:26:02;;;;;;;1.35;1.00;;;;;;;;;;5036726;28;20043;-70
2022/01/09 03:28:28;;;;;;;1.48;0.98;;;;;;;;;;5054083;28;20031;-70
2022/01/09 03:30:53;;;;;;;1.10;1.00;;;;;;;;;;5049502;28;20085;-70
2022/01/09 03:33:18;;;;;;;1.83;1.00;;;;;;;;;;5051989;28;20117;-70
2022/01/09 03:35:43;;;;;;;5.97;1.15;;;;;;;;;;5054804;28;20031;-70
2022/01/09 03:38:09;;;;;;;0.80;0.80;;;;;;;;;;5068685;28;20025;-70
2022/01/09 03:40:34;;;;;;;1.13;0.93;;;;;;;;;;5051409;28;20106;-70
2022/01/09 03:43:00;;;;;;;2.45;0.85;;;;;;;;;;5053465;28;20108;-70
2022/01/09 03:45:26;;;;;;;2.28;0.88;;;;;;;;;;5051302;28;20119;-70
2022/01/09 03:47:51;;;;;;;1.88;0.88;;;;;;;;;;5053677;28;20028;-70
2022/01/09 03:50:17;;;;;;;0.90;0.90;;;;;;;;;;5053120;28;20024;-70
2022/01/09 03:52:43;;;;;;;0.60;0.60;;;;;;;;;;5054285;28;20110;-70
2022/01/09 03:55:10;;;;;;;0.65;0.50;;;;;;;;;;5054959;28;20032;-69
2022/01/09 03:57:35;;;;;;;0.75;0.68;;;;;;;;;;5054838;28;20391;-69
2022/01/09 04:00:01;;;;;;;0.55;0.55;;;;;;;;;;5055202;28;20021;-69
2022/01/09 04:02:26;;;;;;;1.27;0.80;;;;;;;;;;5055356;28;20511;-69
2022/01/09 04:04:51;;;;;;;0.60;0.60;;;;;;;;;;5058307;28;20549;-69
2022/01/09 04:07:17;;;;;;;0.52;0.52;;;;;;;;;;5056898;28;20594;-69
2022/01/09 04:09:44;;;;;;;0.50;0.50;;;;;;;;;;5057415;28;20081;-69
2022/01/09 04:12:17;;;;;;;3.03;0.82;;;;;;;;;;5057281;28;20031;-69
2022/01/09 04:14:43;;;;;;;0.50;0.50;;;;;;;;;;5055752;28;20489;-69
2022/01/09 04:17:13;;;;;;;0.52;0.52;;;;;;;;;;5057706;28;20102;-69
2022/01/09 04:19:39;;;;;;;2.22;0.50;;;;;;;;;;5058316;28;20119;-69
2022/01/09 04:22:04;;;;;;;0.60;0.60;;;;;;;;;;5058919;28;20567;-69
2022/01/09 04:24:29;;;;;;;0.60;0.60;;;;;;;;;;5059990;28;20131;-69
2022/01/09 04:26:55;;;;;;;1.13;0.50;;;;;;;;;;5058011;28;20127;-69
2022/01/09 04:29:20;;;;;;;0.52;0.52;;;;;;;;;;5057324;28;20400;-69
2022/01/09 04:31:45;;;;;;;3.53;0.45;;;;;;;;;;5057909;28;21870;-70
2022/01/09 04:34:11;;;;;;;0.52;0.52;;;;;;;;;;5058479;28;20111;-69
2022/01/09 04:36:36;;;;;;;0.40;0.40;;;;;;;;;;5059330;28;20062;-69
2022/01/09 04:39:01;;;;;;;0.55;0.52;;;;;;;;;;5058756;28;20028;-69
2022/01/09 04:41:27;;;;;;;0.40;0.40;;;;;;;;;;5054476;28;20039;-69
2022/01/09 04:43:52;;;;;;;0.75;0.52;;;;;;;;;;5059395;28;20424;-69
2022/01/09 04:46:31;;;;;;;0.40;0.40;;;;;;;;;;5059521;28;20055;-70
2022/01/09 04:48:57;;;;;;;0.43;0.43;;;;;;;;;;5057500;28;20026;-70
2022/01/09 04:51:22;;;;;;;0.95;0.50;;;;;;;;;;5062390;28;20020;-70
2022/01/09 04:53:47;;;;;;;0.30;0.30;;;;;;;;;;5060371;28;20036;-67
2022/01/09 04:56:13;;;;;;;0.40;0.40;;;;;;;;;;5050923;28;20116;-67
2022/01/09 04:58:38;;;;;;;0.50;0.50;;;;;;;;;;5049774;28;20064;-67
2022/01/09 05:01:04;;;;;;;0.40;0.40;;;;;;;;;;5048870;28;20621;-67
2022/01/09 05:03:29;;;;;;;0.35;0.35;;;;;;;;;;5048365;28;20033;-67
2022/01/09 05:05:54;;;;;;;0.30;0.30;;;;;;;;;;5050632;28;20032;-67
2022/01/09 05:08:20;;;;;;;0.90;0.50;;;;;;;;;;5049373;28;20048;-67
2022/01/09 05:10:45;;;;;;;0.40;0.40;;;;;;;;;;5049201;28;20025;-67
2022/01/09 05:13:10;;;;;;;0.40;0.40;;;;;;;;;;5050855;28;20062;-67
2022/01/09 05:15:36;;;;;;;1.77;0.40;;;;;;;;;;5050168;28;20059;-67
2022/01/09 05:18:04;;;;;;;0.45;0.45;;;;;;;;;;5049511;28;20060;-67
2022/01/09 05:20:29;;;;;;;0.40;0.40;;;;;;;;;;5050527;28;20912;-67
2022/01/09 05:22:55;;;;;;;0.55;0.55;;;;;;;;;;5051179;28;20029;-67
2022/01/09 05:25:20;;;;;;;1.17;0.40;;;;;;;;;;5065441;28;20033;-67
2022/01/09 05:27:45;;;;;;;0.40;0.40;;;;;;;;;;5048397;28;20021;-67
2022/01/09 05:30:11;;;;;;;0.30;0.30;;;;;;;;;;5048260;28;20552;-67
2022/01/09 05:32:36;;;;;;;0.40;0.40;;;;;;;;;;5050696;28;20115;-67
2022/01/09 05:35:01;;;;;;;0.60;0.60;;;;;;;;;;5049964;28;20029;-67
2022/01/09 05:37:27;;;;;;;0.30;0.30;;;;;;;;;;5051040;28;20079;-67
2022/01/09 05:39:52;;;;;;;0.43;0.43;;;;;;;;;;5049411;28;20060;-67
2022/01/09 05:42:17;;;;;;;0.35;0.35;;;;;;;;;;5049884;28;20063;-67
2022/01/09 05:44:43;;;;;;;0.77;0.43;;;;;;;;;;5049005;28;20111;-67
2022/01/09 05:47:08;;;;;;;0.40;0.40;;;;;;;;;;5048138;28;20492;-67
2022/01/09 05:49:33;;;;;;;0.50;0.50;;;;;;;;;;5051168;28;20035;-68
2022/01/09 05:51:59;;;;;;;0.30;0.30;;;;;;;;;;5047813;28;20028;-67
2022/01/09 05:54:24;;;;;;;0.35;0.35;;;;;;;;;;5048766;28;20063;-68
2022/01/09 05:56:51;;;;;;;0.30;0.30;;;;;;;;;;5048476;28;20112;-67
2022/01/09 05:59:17;;;;;;;0.30;0.30;;;;;;;;;;5046800;28;20103;-67
2022/01/09 06:01:42;;;;;;;0.40;0.40;;;;;;;;;;5046372;28;20144;-67
2022/01/09 06:04:08;;;;;;;0.50;0.50;;;;;;;;;;5049313;28;20026;-67
2022/01/09 06:06:33;;;;;;;0.50;0.50;;;;;;;;;;5048109;28;20032;-67
2022/01/09 06:08:58;;;;;;;0.30;0.30;;;;;;;;;;5049242;28;20103;-67
2022/01/09 06:11:24;;;;;;;0.30;0.30;;;;;;;;;;5049504;28;20064;-68
2022/01/09 06:13:49;;;;;;;0.32;0.32;;;;;;;;;;5050248;28;22514;-67
2022/01/09 06:16:14;;;;;;;0.43;0.43;;;;;;;;;;5049898;28;20542;-67
2022/01/09 06:18:40;;;;;;;0.40;0.40;;;;;;;;;;5053699;28;20032;-67
2022/01/09 06:21:05;;;;;;;0.40;0.40;;;;;;;;;;5052486;28;20020;-67
2022/01/09 06:23:30;;;;;;;0.38;0.38;;;;;;;;;;5051449;28;20024;-67
2022/01/09 06:25:56;;;;;;;0.40;0.40;;;;;;;;;;5051714;28;20060;-67
2022/01/09 06:28:21;;;;;;;0.45;0.45;;;;;;;;;;5052298;28;20113;-67
2022/01/09 06:30:46;;;;;;;0.30;0.30;;;;;;;;;;5052530;28;20078;-67
2022/01/09 06:33:12;;;;;;;0.40;0.40;;;;;;;;;;5055495;28;20400;-67
2022/01/09 06:35:38;;;;;;;0.32;0.32;;;;;;;;;;5069350;28;20051;-66
2022/01/09 06:38:03;;;;;;;0.40;0.40;;;;;;;;;;5054006;28;20332;-67
2022/01/09 06:40:28;;;;;;;0.45;0.45;;;;;;;;;;5052486;28;20028;-67
2022/01/09 06:42:54;;;;;;;0.30;0.30;;;;;;;;;;5053844;28;20128;-67
2022/01/09 06:45:22;;;;;;;0.30;0.30;;;;;;;;;;5052666;28;20124;-67
2022/01/09 06:47:47;;;;;;;0.50;0.50;;;;;;;;;;5052108;28;22179;-68
2022/01/09 06:50:14;;;;;;;0.50;0.50;;;;;;;;;;5051188;28;20043;-67
2022/01/09 06:52:40;;;;;;;0.40;0.40;;;;;;;;;;5052377;28;20475;-67
2022/01/09 06:55:05;;;;;;;0.40;0.40;;;;;;;;;;5052011;28;20046;-67
2022/01/09 06:57:31;;;;;;;0.30;0.30;;;;;;;;;;5053142;28;20036;-68
2022/01/09 06:59:56;;;;;;;0.30;0.30;;;;;;;;;;5052556;28;20632;-68
2022/01/09 07:02:21;;;;;;;0.40;0.40;;;;;;;;;;5051593;28;20048;-68
2022/01/09 07:04:47;;;;;;;0.35;0.35;;;;;;;;;;5050341;28;20216;-68
2022/01/09 07:07:12;;;;;;;0.30;0.30;;;;;;;;;;5052184;28;20552;-68
2022/01/09 07:09:38;;;;;;;0.50;0.50;;;;;;;;;;5051739;28;20963;-68
2022/01/09 07:12:04;;;;;;;0.82;0.82;;;;;;;;;;5050800;28;20776;-68
2022/01/09 07:14:29;;;;;;;0.75;0.75;;;;;;;;;;5049330;28;20028;-68
2022/01/09 07:16:55;;;;;;;1.10;1.00;;;;;;;;;;5050253;28;20037;-69
2022/01/09 07:19:20;;;;;;;1.17;1.17;;;;;;;;;;5053434;28;20397;-68
2022/01/09 07:21:45;;;;;;;0.68;0.68;;;;;;;;;;5053149;28;20474;-69
2022/01/09 07:24:11;;;;;;;0.50;0.50;;;;;;;;;;5051481;28;20025;-68
2022/01/09 07:26:36;;;;;;;0.70;0.70;;;;;;;;;;5051878;28;20041;-68
2022/01/09 07:29:01;;;;;;;1.20;1.20;;;;;;;;;;5054707;28;20023;-68
2022/01/09 07:31:27;;;;;;;1.60;1.50;;;;;;;;;;5050152;28;20045;-69
2022/01/09 07:33:52;;;;;;;1.52;1.50;;;;;;;;;;5050795;28;20514;-68
2022/01/09 07:36:19;;;;;;;0.40;0.40;;;;;;;;;;5050253;28;20033;-68
2022/01/09 07:38:44;;;;;;;0.50;0.50;;;;;;;;;;5055508;28;20491;-68
2022/01/09 07:41:12;;;;;;;1.05;0.57;;;;;;;;;;5053922;28;20094;-69
2022/01/09 07:43:38;;;;;;;0.70;0.70;;;;;;;;;;5053122;28;20748;-68
2022/01/09 07:46:03;;;;;;;1.00;1.00;;;;;;;;;;5051179;28;20028;-69
2022/01/09 07:48:28;;;;;;;0.82;0.82;;;;;;;;;;5051484;28;20028;-69
2022/01/09 07:50:54;;;;;;;0.60;0.60;;;;;;;;;;5053653;28;20472;-69
2022/01/09 07:53:23;;;;;;;0.40;0.40;;;;;;;;;;5053651;28;20105;-69
2022/01/09 07:55:49;;;;;;;1.42;1.33;;;;;;;;;;5052928;28;20036;-69
2022/01/09 07:58:14;;;;;;;0.80;0.80;;;;;;;;;;5053151;28;20029;-69
2022/01/09 08:00:41;;;;;;;1.35;1.35;;;;;;;;;;5051942;28;20083;-69
2022/01/09 08:03:06;;;;;;;0.90;0.90;;;;;;;;;;5052326;28;20403;-69
2022/01/09 08:05:31;;;;;;;0.60;0.60;;;;;;;;;;5051606;28;20127;-68
2022/01/09 08:07:56;;;;;;;1.02;1.02;;;;;;;;;;5049255;28;20507;-69
2022/01/09 08:10:22;;;;;;;1.90;1.80;;;;;;;;;;5052658;28;20036;-68
2022/01/09 08:12:47;;;;;;;2.30;2.20;;;;;;;;;;5053352;28;20063;-69
2022/01/09 08:15:12;;;;;;;1.15;1.15;;;;;;;;;;5050522;28;20197;-68
2022/01/09 08:17:41;;;;;;;2.72;0.68;;;;;;;;;;5052233;28;20446;-69
2022/01/09 08:20:07;;;;;;;0.90;0.90;;;;;;;;;;5052096;28;20032;-69
2022/01/09 08:22:33;;;;;;;1.42;0.57;;;;;;;;;;5052715;28;20035;-69
2022/01/09 08:24:58;;;;;;;0.50;0.50;;;;;;;;;;5051375;28;20080;-69
2022/01/09 08:27:24;;;;;;;1.10;1.00;;;;;;;;;;5054692;28;20415;-68
2022/01/09 08:29:49;;;;;;;2.08;0.60;;;;;;;;;;5048970;28;20024;-69
2022/01/09 08:32:14;;;;;;;0.60;0.60;;;;;;;;;;5049101;28;20072;-69
2022/01/09 08:34:40;;;;;;;4.57;0.90;;;;;;;;;;5050779;28;20064;-68
2022/01/09 08:37:11;;;;;;;0.77;0.77;;;;;;;;;;5052459;28;20020;-69
2022/01/09 08:39:37;;;;;;;0.45;0.45;;;;;;;;;;5050860;28;20090;-68
2022/01/09 08:42:02;;;;;;;0.50;0.50;;;;;;;;;;5050170;28;20591;-68
2022/01/09 08:44:27;;;;;;;2.38;0.40;;;;;;;;;;5051534;28;20102;-69
2022/01/09 08:46:53;;;;;;;0.50;0.50;;;;;;;;;;5051153;28;20115;-69
2022/01/09 08:49:18;;;;;;;0.60;0.60;;;;;;;;;;5052335;28;20056;-69
2022/01/09 08:51:43;;;;;;;0.93;0.93;;;;;;;;;;5052208;28;20166;-69
2022/01/09 08:54:08;;;;;;;1.10;0.80;;;;;;;;;;5057734;28;20036;-69
2022/01/09 08:56:36;;;;;;;1.65;1.55;;;;;;;;;;5075061;28;20124;-70
2022/01/09 08:59:01;;;;;;;4.53;1.20;;;;;;;;;;5068381;28;20032;-70
2022/01/09 09:01:27;;;;;;;0.90;0.90;;;;;;;;;;5067316;28;20032;-69
2022/01/09 09:03:52;;;;;;;1.55;1.45;;;;;;;;;;5068282;28;20514;-69
2022/01/09 09:06:18;;;;;;;0.90;0.90;;;;;;;;;;5067643;28;20067;-70
2022/01/09 09:08:43;;;;;;;0.80;0.80;;;;;;;;;;5068166;28;20056;-70
2022/01/09 09:11:11;;;;;;;0.85;0.85;;;;;;;;;;5066154;28;20086;-70
2022/01/09 09:13:36;;;;;;;0.60;0.60;;;;;;;;;;5050162;28;20024;-70
2022/01/09 09:16:02;;;;;;;1.70;1.60;;;;;;;;;;5050300;28;20028;-69
2022/01/09 09:18:27;;;;;;;5.47;0.60;;;;;;;;;;5067838;28;20165;-70
2022/01/09 09:20:53;;;;;;;1.40;1.30;;;;;;;;;;5067417;28;20103;-70
2022/01/09 09:23:18;;;;;;;0.45;0.45;;;;;;;;;;5082258;28;20062;-69
2022/01/09 09:25:43;;;;;;;0.55;0.55;;;;;;;;;;5086743;28;20070;-71
2022/01/09 09:28:09;;;;;;;0.70;0.70;;;;;;;;;;5069928;28;20059;-70
2022/01/09 09:30:35;;;;;;;1.77;0.70;;;;;;;;;;5085769;28;20028;-70
2022/01/09 09:33:00;;;;;;;0.65;0.65;;;;;;;;;;5086472;28;20078;-70
2022/01/09 09:35:25;;;;;;;0.63;0.63;;;;;;;;;;5087115;28;20027;-70
2022/01/09 09:37:51;;;;;;;2.63;0.93;;;;;;;;;;5087851;28;20036;-70
2022/01/09 09:40:16;;;;;;;3.47;1.00;;;;;;;;;;5086824;28;20321;-70
2022/01/09 09:42:42;;;;;;;2.63;1.15;;;;;;;;;;5086253;28;20060;-70
2022/01/09 09:45:08;;;;;;;2.15;1.10;;;;;;;;;;5086657;28;20034;-70
2022/01/09 09:47:34;;;;;;;2.17;1.65;;;;;;;;;;5086687;28;20028;-70
2022/01/09 09:50:00;;;;;;;1.02;0.93;;;;;;;;;;5087646;28;20448;-69
2022/01/09 09:52:25;;;;;;;2.08;1.40;;;;;;;;;;5091698;28;20528;-69
2022/01/09 09:54:51;;;;;;;2.05;0.90;;;;;;;;;;5086849;28;20122;-70
2022/01/09 09:57:16;;;;;;;2.53;1.00;;;;;;;;;;5085573;28;20533;-70
2022/01/09 09:59:41;;;;;;;5.25;2.83;;;;;;;;;;5090561;28;20080;-71
2022/01/09 10:02:08;;;;;;;12.80;7.28;;;;;;;;;;5090218;28;20135;-71
2022/01/09 10:04:34;;;;;;;1.60;1.50;;;;;;;;;;5090464;28;20528;-70
2022/01/09 10:06:59;;;;;;;2.88;1.42;;;;;;;;;;5073966;28;20028;-70
2022/01/09 10:09:25;;;;;;;2.05;1.50;;;;;;;;;;5090337;28;20498;-70
2022/01/09 10:11:55;;;;;;;2.60;1.38;;;;;;;;;;5072120;28;20036;-70
2022/01/09 10:14:25;;;;;;;2.75;1.58;;;;;;;;;;5069787;28;20115;-70
2022/01/09 10:17:10;;;;;;;1.58;1.38;;;;;;;;;;5080698;28;20415;-70
2022/01/09 10:19:56;;;;;;;2.80;1.70;;;;;;;;;;5080652;28;20056;-69
2022/01/09 10:22:34;;;;;;;2.47;1.17;;;;;;;;;;5085596;28;20467;-70
2022/01/09 10:25:23;;;;;;;1.83;1.13;;;;;;;;;;5071211;28;20046;-70
2022/01/09 10:27:49;;;;;;;3.08;1.70;;;;;;;;;;5071850;28;20127;-69
2022/01/09 10:30:15;;;;;;;1.30;1.20;;;;;;;;;;5073195;28;20032;-69
2022/01/09 10:32:40;;;;;;;2.22;1.30;;;;;;;;;;5087957;28;20458;-69
2022/01/09 10:35:16;;;;;;;1.88;1.50;;;;;;;;;;5073049;28;20506;-70
2022/01/09 10:37:43;;;;;;;1.73;1.63;;;;;;;;;;5066717;28;20123;-69
2022/01/09 10:40:11;;;;;;;1.58;1.45;;;;;;;;;;5087774;28;20164;-70
2022/01/09 10:42:37;;;;;;;2.55;1.30;;;;;;;;;;5089811;28;20057;-70
2022/01/09 10:45:41;;;;;;;3.20;1.50;;;;;;;;;;5090051;28;20119;-69
2022/01/09 10:48:12;;;;;;;1.42;1.33;;;;;;;;;;5068032;28;20067;-70
2022/01/09 10:50:40;;;;;;;1.48;1.27;;;;;;;;;;5082561;28;20040;-69
2022/01/09 10:53:35;;;;;;;3.70;1.90;;;;;;;;;;5069459;28;20043;-70
2022/01/09 10:56:00;;;;;;;1.85;1.38;;;;;;;;;;5078549;28;20114;-70
2022/01/09 10:58:26;;;;;;;4.18;1.50;;;;;;;;;;5077883;28;20033;-70
2022/01/09 11:01:26;;;;;;;1.92;1.50;;;;;;;;;;5083485;28;20120;-70
2022/01/09 11:04:06;;;;;;;2.00;1.20;;;;;;;;;;5070961;28;20454;-70
2022/01/09 11:06:32;;;;;;;3.78;2.10;;;;;;;;;;5082319;28;20027;-70
2022/01/09 11:08:57;;;;;;;5.35;1.38;;;;;;;;;;5075585;28;20020;-70
2022/01/09 11:11:27;;;;;;;1.60;1.50;;;;;;;;;;5077554;28;20047;-70
2022/01/09 11:13:54;;;;;;;6.13;2.25;;;;;;;;;;5084138;28;20036;-69
2022/01/09 11:16:42;;;;;;;5.35;1.20;;;;;;;;;;5083245;28;20059;-70
2022/01/09 11:19:15;;;;;;;4.20;1.50;;;;;;;;;;5082744;28;20060;-70
2022/01/09 11:21:42;;;;;;;3.90;3.40;;;;;;;;;;5086649;28;20106;-70
2022/01/09 11:24:10;;;;;;;2.25;2.05;;;;;;;;;;5052177;28;20098;-70
2022/01/09 11:27:11;;;;;;;1.90;1.80;;;;;;;;;;5069948;28;20474;-69
2022/01/09 11:29:55;;;;;;;1.00;1.00;;;;;;;;;;5068919;28;20043;-69
2022/01/09 11:32:32;;;;;;;3.85;2.00;;;;;;;;;;5068333;28;20037;-69
2022/01/09 11:35:16;;;;;;;3.05;1.80;;;;;;;;;;5068424;28;20490;-69
2022/01/09 11:37:59;;;;;;;1.67;1.10;;;;;;;;;;5069892;28;20558;-69
2022/01/09 11:40:29;;;;;;;2.30;1.13;;;;;;;;;;5068556;28;20324;-69
2022/01/09 11:43:14;;;;;;;4.20;1.45;;;;;;;;;;5069245;28;20028;-69
2022/01/09 11:45:46;;;;;;;2.17;1.55;;;;;;;;;;5069719;28;20391;-70
2022/01/09 11:48:12;;;;;;;1.63;1.02;;;;;;;;;;5069516;28;20031;-70
2022/01/09 11:51:05;;;;;;;4.03;1.30;;;;;;;;;;5068227;28;20107;-70
2022/01/09 11:54:06;;;;;;;2.75;1.38;;;;;;;;;;5077465;28;20016;-70
2022/01/09 11:56:44;;;;;;;3.17;1.40;;;;;;;;;;5068097;28;20441;-69
2022/01/09 11:59:35;;;;;;;4.55;1.80;;;;;;;;;;5069259;28;20028;-70
2022/01/09 12:02:12;;;;;;;3.28;1.63;;;;;;;;;;5071209;28;20102;-70
2022/01/09 12:04:40;;;;;;;5.43;2.00;;;;;;;;;;5069444;28;20032;-71
2022/01/09 12:07:13;;;;;;;4.35;1.90;;;;;;;;;;5069294;28;20439;-70
2022/01/09 12:09:42;;;;;;;2.85;1.50;;;;;;;;;;5051570;28;20098;-69
2022/01/09 12:12:08;;;;;;;3.05;1.42;;;;;;;;;;5067452;28;20028;-70
2022/01/09 12:14:53;;;;;;;8.30;1.45;;;;;;;;;;5068532;28;20047;-70
2022/01/09 12:17:21;;;;;;;;;;;;;;;;;;5088830;28;20519;-69
2022/01/09 12:20:14;;;;;;;5.90;2.22;;;;;;;;;;5089369;28;19935;-70
2022/01/09 12:25:30;;;;;;;2.67;1.55;;;;;;;;;;5088845;28;20035;-70
2022/01/09 12:28:09;;;;;;;6.10;2.03;;;;;;;;;;5080676;28;20028;-69
2022/01/09 12:33:07;;;;;;;5.43;1.55;;;;;;;;;;5078488;28;20496;-69
2022/01/09 12:35:33;;;;;;;5.70;1.50;;;;;;;;;;5070697;28;20035;-69
2022/01/09 12:38:00;;;;;;;7.13;1.77;;;;;;;;;;5067130;28;20028;-69
2022/01/09 12:40:26;;;;;;;4.28;1.42;;;;;;;;;;5067341;28;20082;-69
2022/01/09 12:42:52;;;;;;;10.00;1.80;;;;;;;;;;5079563;28;20027;-69
2022/01/09 12:45:31;;;;;;;9.30;2.25;;;;;;;;;;5085941;28;20024;-69
2022/01/09 12:47:57;;;;;;;5.65;1.60;;;;;;;;;;5051796;28;20028;-69
2022/01/09 12:50:31;;;;;;;5.28;1.55;;;;;;;;;;5067111;28;20036;-69
2022/01/09 12:53:19;;;;;;;9.33;1.67;;;;;;;;;;5067166;28;20449;-69
2022/01/09 12:55:56;;;;;;;3.65;1.40;;;;;;;;;;5047796;28;20033;-69
2022/01/09 12:58:23;;;;;;;9.07;1.40;;;;;;;;;;5048214;28;20029;-69
2022/01/09 13:00:48;;;;;;;3.20;1.65;;;;;;;;;;5046252;28;20091;-70
2022/01/09 13:03:17;;;;;;;6.50;1.27;;;;;;;;;;5056505;28;20029;-69
2022/01/09 13:05:42;;;;;;;6.45;1.92;;;;;;;;;;5066450;28;20447;-69
2022/01/09 13:08:07;;;;;;;3.90;1.48;;;;;;;;;;5073853;28;20020;-69
2022/01/09 13:10:33;;;;;;;7.00;1.70;;;;;;;;;;5070391;28;20020;-70
2022/01/09 13:13:03;;;;;;;5.70;1.35;;;;;;;;;;5087020;28;20024;-69
2022/01/09 13:15:33;;;;;;;2.45;1.45;;;;;;;;;;5071011;28;20356;-70
2022/01/09 13:17:58;;;;;;;1.75;1.15;;;;;;;;;;5066805;28;20479;-70
2022/01/09 13:20:24;;;;;;;6.80;1.50;;;;;;;;;;5076900;28;20064;-70
2022/01/09 13:23:01;;;;;;;6.40;2.83;;;;;;;;;;5079331;28;20036;-70
2022/01/09 13:25:26;;;;;;;4.55;1.70;;;;;;;;;;5067124;28;20286;-70
2022/01/09 13:27:52;;;;;;;8.35;2.22;;;;;;;;;;5066204;28;20547;-69
2022/01/09 13:30:20;;;;;;;7.55;1.58;;;;;;;;;;5067294;28;20047;-70
2022/01/09 13:32:45;;;;;;;4.60;1.50;;;;;;;;;;5075335;28;20024;-68
2022/01/09 13:35:11;;;;;;;2.60;1.30;;;;;;;;;;5078183;28;20032;-69
2022/01/09 13:37:37;;;;;;;3.47;1.60;;;;;;;;;;5060655;28;20024;-69
2022/01/09 13:40:03;;;;;;;2.38;1.30;;;;;;;;;;5073476;28;20020;-69
2022/01/09 13:42:32;;;;;;;2.03;1.33;;;;;;;;;;5053598;28;20020;-69
2022/01/09 13:45:13;;;;;;;8.05;1.20;;;;;;;;;;5072459;28;20113;-69
2022/01/09 13:47:52;;;;;;;4.53;1.50;;;;;;;;;;5079774;28;20060;-69
2022/01/09 13:50:18;;;;;;;2.15;1.13;;;;;;;;;;5074727;28;20020;-69
2022/01/09 13:52:44;;;;;;;3.03;1.13;;;;;;;;;;5071178;28;20376;-69
2022/01/09 13:55:11;;;;;;;7.32;1.60;;;;;;;;;;5079597;28;20054;-70
2022/01/09 13:57:56;;;;;;;2.78;1.55;;;;;;;;;;5052540;28;20020;-69
2022/01/09 14:00:24;;;;;;;5.03;1.85;;;;;;;;;;5069892;28;20395;-69
2022/01/09 14:02:50;;;;;;;5.63;1.75;;;;;;;;;;5068476;28;20024;-69
2022/01/09 14:05:19;;;;;;;2.72;1.42;;;;;;;;;;5069776;28;20043;-69
2022/01/09 14:07:51;;;;;;;5.78;1.70;;;;;;;;;;5069672;28;20055;-70
2022/01/09 14:10:17;;;;;;;3.92;1.88;;;;;;;;;;5085840;28;20020;-70
2022/01/09 14:12:43;;;;;;;3.97;2.10;;;;;;;;;;5054028;28;20474;-70
2022/01/09 14:15:14;;;;;;;8.70;2.00;;;;;;;;;;5071054;28;20074;-69
2022/01/09 14:17:49;;;;;;;6.72;1.90;;;;;;;;;;5077322;28;20039;-70
2022/01/09 14:20:18;;;;;;;7.20;2.22;;;;;;;;;;5070366;28;20028;-70
2022/01/09 14:22:48;;;;;;;3.40;1.52;;;;;;;;;;5068373;28;20390;-70
2022/01/09 14:25:24;;;;;;;6.93;2.20;;;;;;;;;;5066538;28;20360;-69
2022/01/09 14:27:49;;;;;;;10.43;1.90;;;;;;;;;;5070305;28;20043;-69
2022/01/09 14:30:29;;;;;;;6.82;1.58;;;;;;;;;;5078119;28;20032;-70
2022/01/09 14:33:08;;;;;;;4.93;1.60;;;;;;;;;;5059203;28;20028;-70
2022/01/09 14:35:38;;;;;;;4.63;1.48;;;;;;;;;;5064762;28;20115;-69
2022/01/09 14:38:05;;;;;;;3.65;1.50;;;;;;;;;;5070789;28;20032;-69
2022/01/09 14:40:31;;;;;;;3.28;1.20;;;;;;;;;;5056378;28;20028;-69
2022/01/09 14:42:56;;;;;;;7.05;1.38;;;;;;;;;;5072229;28;20051;-70
2022/01/09 14:45:22;;;;;;;4.15;1.40;;;;;;;;;;5066737;28;20059;-69
2022/01/09 14:47:48;;;;;;;2.47;1.20;;;;;;;;;;5071470;28;20016;-70
2022/01/09 14:50:14;;;;;;;2.08;1.10;;;;;;;;;;5067562;28;20534;-69
2022/01/09 14:52:39;;;;;;;3.17;1.00;;;;;;;;;;5055734;28;20474;-70
2022/01/09 14:55:08;;;;;;;3.00;1.45;;;;;;;;;;5079352;28;20030;-69
2022/01/09 14:57:34;;;;;;;2.15;1.30;;;;;;;;;;5064854;28;20341;-70